Inicio METAR Ruta Wind Satelite

Informe Meteorológico

Fecha: 2020/07/02 01:52:42 Local
2020.07.02 06:52 UTC


Estado: VENCIDO
Operación:VFR
Medellin / Olaya Herrera, Colombia (SKMD) 06-13N 075-36W 1499M
2020.07.01 2300 UTC
Wind: from the N (360 degrees) at 18 MPH (16 KT):0
Visibility: greater than 7 mile(s):0
Sky conditions: partly cloudy
Weather: thunder; Cumulonimbus clouds observed
Temperature: 71 F (22 C)
Dew Point: 64 F (18 C)
Relative Humidity: 78%
Pressure (altimeter): 30.03 in. Hg (1016 hPa)
ob: SKMD 012300Z 36016KT 9999 TS SCT040CB SCT100 22/18 A3003 RMK CB VCSH/SE/NW
cycle: 23

SKMD 012200Z 36012KT 9999 SCT040CB SCT100 25/17 A3001 RMK CB/NE/S
SKMD 012100Z 36010KT 9999 FEW040CB 27/17 A3000 RMK CB/NW/N
SKMD 012000Z 22014KT 9999 VCSH SCT040CB SCT100 25/17 A3003 RMK CB/S/SW
SKMD 011900Z 20014KT 9999 VCSH SCT0340CB SCT100 26/17 A3003 RMK CB VCSH/SE/S
SKMD 011800Z 21006KT 9999 FEW040CB 28/15 A3006 RMK CB/SE/SW